createdAt,value
2023-05-14T00:02:08.968Z,44.31
2023-05-14T00:04:35.924Z,44.68
2023-05-14T00:07:02.840Z,44.70
2023-05-14T00:09:30.457Z,44.70
2023-05-14T00:11:57.348Z,44.98
2023-05-14T00:14:24.177Z,44.56
2023-05-14T00:16:54.059Z,44.42
2023-05-14T00:19:20.924Z,44.45
2023-05-14T00:21:48.618Z,44.69
2023-05-14T00:24:15.418Z,44.81
2023-05-14T00:26:42.144Z,44.54
2023-05-14T00:29:08.921Z,44.67
2023-05-14T00:31:35.797Z,44.23
2023-05-14T00:34:03.195Z,44.29
2023-05-14T00:36:31.441Z,44.36
2023-05-14T00:38:58.202Z,44.04
2023-05-14T00:41:24.987Z,44.05
2023-05-14T00:43:51.814Z,43.97
2023-05-14T00:46:18.859Z,44.10
2023-05-14T00:48:46.218Z,44.10
2023-05-14T00:51:13.244Z,44.08
2023-05-14T00:53:40.078Z,43.66
2023-05-14T00:56:08.259Z,43.85
2023-05-14T00:58:35.189Z,44.07
2023-05-14T01:01:02.331Z,43.69
2023-05-14T01:03:31.901Z,43.83
2023-05-14T01:06:09.951Z,43.85
2023-05-14T01:08:44.815Z,43.61
2023-05-14T01:11:13.908Z,43.92
2023-05-14T01:14:05.094Z,43.65
2023-05-14T01:16:34.118Z,44.14
2023-05-14T01:19:02.775Z,44.11
2023-05-14T01:21:40.843Z,43.79
2023-05-14T01:24:08.483Z,44.31
2023-05-14T01:26:36.581Z,44.25
2023-05-14T01:29:12.284Z,44.13
2023-05-14T01:31:43.095Z,44.01
2023-05-14T01:34:12.739Z,43.87
2023-05-14T01:36:41.496Z,43.50
2023-05-14T01:39:09.726Z,43.83
2023-05-14T01:41:39.366Z,43.95
2023-05-14T01:44:06.361Z,43.99
2023-05-14T01:46:33.793Z,43.94
2023-05-14T01:49:01.232Z,43.58
2023-05-14T01:51:28.286Z,43.66
2023-05-14T01:53:55.056Z,43.83
2023-05-14T01:56:23.806Z,43.64
2023-05-14T01:58:50.573Z,43.70
2023-05-14T02:01:17.486Z,43.62
2023-05-14T02:03:44.351Z,43.80
2023-05-14T02:06:11.135Z,44.23
2023-05-14T02:08:38.106Z,44.00
2023-05-14T02:11:04.893Z,44.17
2023-05-14T02:13:31.662Z,44.42
2023-05-14T02:15:58.827Z,44.45
2023-05-14T02:18:25.737Z,44.66
2023-05-14T02:20:52.862Z,44.87
2023-05-14T02:23:25.600Z,45.01
2023-05-14T02:25:58.108Z,44.92
2023-05-14T02:28:24.895Z,45.36
2023-05-14T02:30:51.712Z,45.35
2023-05-14T02:33:18.720Z,45.43
2023-05-14T02:35:45.541Z,45.67
2023-05-14T02:38:13.334Z,46.26
2023-05-14T02:40:40.103Z,46.44
2023-05-14T02:43:07.062Z,46.47
2023-05-14T02:45:33.878Z,46.42
2023-05-14T02:48:00.736Z,46.70
2023-05-14T02:50:27.674Z,47.17
2023-05-14T02:52:54.497Z,46.96
2023-05-14T02:55:21.849Z,46.97
2023-05-14T02:57:48.688Z,47.02
2023-05-14T03:00:15.719Z,47.23
2023-05-14T03:02:43.680Z,46.65
2023-05-14T03:05:10.863Z,46.93
2023-05-14T03:07:37.815Z,47.00
2023-05-14T03:10:05.863Z,47.08
2023-05-14T03:12:32.644Z,46.57
2023-05-14T03:14:59.388Z,47.20
2023-05-14T03:17:26.295Z,47.01
2023-05-14T03:19:53.070Z,47.24
2023-05-14T03:22:19.993Z,47.54
2023-05-14T03:24:48.041Z,46.99
2023-05-14T03:27:15.017Z,47.16
2023-05-14T03:29:41.859Z,47.31
2023-05-14T03:32:08.705Z,47.23
2023-05-14T03:34:35.984Z,47.35
2023-05-14T03:37:02.873Z,47.14
2023-05-14T03:39:29.681Z,47.39
2023-05-14T03:41:58.851Z,47.26
2023-05-14T03:44:25.820Z,46.98
2023-05-14T03:46:53.004Z,46.72
2023-05-14T03:49:19.818Z,46.96
2023-05-14T03:51:46.665Z,46.80
2023-05-14T03:54:13.578Z,46.59
2023-05-14T03:56:40.434Z,46.83
2023-05-14T03:59:07.259Z,46.87
2023-05-14T04:01:34.324Z,46.50
2023-05-14T04:04:01.264Z,46.39
2023-05-14T04:06:28.168Z,46.38
2023-05-14T04:08:55.032Z,46.58
2023-05-14T04:11:22.278Z,46.95
2023-05-14T04:13:49.452Z,46.11
2023-05-14T04:16:16.260Z,46.08
2023-05-14T04:18:43.101Z,45.62
2023-05-14T04:21:09.950Z,45.25
2023-05-14T04:23:36.752Z,45.29
2023-05-14T04:26:04.814Z,45.16
2023-05-14T04:28:31.597Z,44.48
2023-05-14T04:30:58.371Z,44.64
2023-05-14T04:33:25.388Z,44.51
2023-05-14T04:35:53.050Z,43.81
2023-05-14T04:38:19.880Z,43.99
2023-05-14T04:40:46.662Z,43.54
2023-05-14T04:43:13.424Z,43.55
2023-05-14T04:45:41.085Z,43.20
2023-05-14T04:48:08.583Z,43.27
2023-05-14T04:50:35.612Z,42.79
2023-05-14T04:53:03.198Z,42.62
2023-05-14T04:55:30.100Z,42.95
2023-05-14T04:57:57.006Z,42.40
2023-05-14T05:00:24.197Z,42.45
2023-05-14T05:02:51.343Z,42.55
2023-05-14T05:05:18.247Z,41.97
2023-05-14T05:07:45.017Z,42.17
2023-05-14T05:10:11.945Z,42.26
2023-05-14T05:12:38.718Z,41.56
2023-05-14T05:15:06.288Z,41.61
2023-05-14T05:17:33.190Z,41.22
2023-05-14T05:20:00.119Z,41.01
2023-05-14T05:22:27.082Z,40.73
2023-05-14T05:24:53.886Z,39.99
2023-05-14T05:27:21.993Z,39.89
2023-05-14T05:29:48.953Z,39.39
2023-05-14T05:32:15.993Z,38.77
2023-05-14T05:34:42.872Z,38.34
2023-05-14T05:37:12.769Z,38.81
2023-05-14T05:39:40.079Z,38.75
2023-05-14T05:42:07.313Z,37.36
2023-05-14T05:44:34.220Z,37.38
2023-05-14T05:47:01.995Z,36.80
2023-05-14T05:49:31.705Z,37.31
2023-05-14T05:51:58.505Z,37.00
2023-05-14T05:54:25.636Z,36.66
2023-05-14T05:56:52.397Z,36.78
2023-05-14T05:59:19.156Z,36.08
2023-05-14T06:01:46.043Z,35.64
2023-05-14T06:04:12.790Z,35.08
2023-05-14T06:06:39.658Z,34.50
2023-05-14T06:09:07.106Z,35.56
2023-05-14T06:11:34.185Z,34.92
2023-05-14T06:14:01.679Z,34.82
2023-05-14T06:17:00.951Z,34.94
2023-05-14T06:19:28.906Z,33.89
2023-05-14T06:21:56.300Z,33.28
2023-05-14T06:24:24.074Z,32.69
2023-05-14T06:27:11.685Z,32.86
2023-05-14T06:29:38.643Z,33.15
2023-05-14T06:32:05.953Z,31.70
2023-05-14T06:34:32.763Z,32.15
2023-05-14T06:37:00.320Z,32.46
2023-05-14T06:39:27.068Z,31.36
2023-05-14T06:41:53.780Z,31.79
2023-05-14T06:44:23.147Z,32.50
2023-05-14T06:46:49.910Z,32.41
2023-05-14T06:49:17.104Z,31.97
2023-05-14T06:51:43.944Z,31.40
2023-05-14T06:54:10.677Z,31.47
2023-05-14T06:56:37.574Z,30.21
2023-05-14T06:59:04.367Z,30.31
2023-05-14T07:01:31.282Z,30.01
2023-05-14T07:03:58.127Z,29.65
2023-05-14T07:06:24.935Z,29.75
2023-05-14T07:08:51.758Z,28.34
2023-05-14T07:11:18.551Z,28.27
2023-05-14T07:13:50.746Z,29.14
2023-05-14T07:16:17.500Z,28.19
2023-05-14T07:18:48.410Z,28.06
2023-05-14T07:21:18.766Z,28.77
2023-05-14T07:23:47.054Z,29.55
2023-05-14T07:26:17.194Z,28.33
2023-05-14T07:28:43.983Z,27.75
2023-05-14T07:31:11.157Z,26.86
2023-05-14T07:33:38.512Z,27.05
2023-05-14T07:36:05.604Z,28.20
2023-05-14T07:38:32.809Z,27.57
2023-05-14T07:41:00.212Z,29.92
2023-05-14T07:43:27.784Z,26.26
2023-05-14T07:45:56.395Z,28.30
2023-05-14T07:48:23.930Z,27.63
2023-05-14T07:50:51.887Z,26.99
2023-05-14T07:53:19.724Z,27.79
2023-05-14T07:55:48.797Z,25.63
2023-05-14T07:58:16.275Z,25.93
2023-05-14T08:00:43.312Z,27.31
2023-05-14T08:03:10.395Z,26.99
2023-05-14T08:05:37.576Z,26.47
2023-05-14T08:08:05.533Z,26.46
2023-05-14T08:10:32.346Z,26.30
2023-05-14T08:12:59.210Z,24.50
2023-05-14T08:15:27.933Z,25.93
2023-05-14T08:17:55.403Z,25.83
2023-05-14T08:20:24.197Z,26.22
2023-05-14T08:22:51.275Z,26.14
2023-05-14T08:25:18.165Z,25.67
2023-05-14T08:27:45.390Z,24.61
2023-05-14T08:30:12.688Z,24.71
2023-05-14T08:32:39.981Z,25.43
2023-05-14T08:35:07.656Z,25.70
2023-05-14T08:37:34.634Z,25.46
2023-05-14T08:40:01.842Z,25.91
2023-05-14T08:42:29.450Z,25.75
2023-05-14T08:45:03.867Z,24.38
2023-05-14T08:47:31.318Z,24.93
2023-05-14T08:50:04.528Z,22.02
2023-05-14T08:52:31.880Z,22.75
2023-05-14T08:55:04.772Z,21.86
2023-05-14T08:57:33.610Z,22.41
2023-05-14T09:00:01.465Z,22.64
2023-05-14T09:02:30.605Z,21.96
2023-05-14T09:05:00.198Z,21.68
2023-05-14T09:07:27.478Z,25.46
2023-05-14T09:09:55.049Z,22.13
2023-05-14T09:12:22.482Z,22.71
2023-05-14T09:14:50.911Z,22.06
2023-05-14T09:17:18.568Z,22.13
2023-05-14T09:19:49.442Z,21.75
2023-05-14T09:22:17.663Z,22.20
2023-05-14T09:24:45.314Z,21.23
2023-05-14T09:27:21.509Z,20.97
2023-05-14T09:29:48.547Z,21.32
2023-05-14T09:32:15.542Z,20.79
2023-05-14T09:34:42.400Z,21.59
2023-05-14T09:37:09.809Z,20.77
2023-05-14T09:39:37.926Z,20.82
2023-05-14T09:42:05.343Z,20.85
2023-05-14T09:44:32.289Z,20.97
2023-05-14T09:46:59.304Z,18.82
2023-05-14T09:49:26.235Z,20.71
2023-05-14T09:51:53.017Z,19.93
2023-05-14T09:54:19.901Z,20.04
2023-05-14T09:56:46.697Z,18.72
2023-05-14T09:59:13.489Z,19.63
2023-05-14T10:01:43.267Z,21.06
2023-05-14T10:04:11.507Z,19.52
2023-05-14T10:06:39.835Z,18.43
2023-05-14T10:09:13.826Z,17.98
2023-05-14T10:11:44.662Z,17.95
2023-05-14T10:14:23.249Z,19.76
2023-05-14T10:16:51.554Z,20.39
2023-05-14T10:19:27.452Z,20.94
2023-05-14T10:22:07.592Z,19.43
2023-05-14T10:24:35.381Z,18.31
2023-05-14T10:27:02.731Z,17.67
2023-05-14T10:29:34.129Z,17.34
2023-05-14T10:32:06.449Z,18.34
2023-05-14T10:34:41.290Z,19.53
2023-05-14T10:37:20.963Z,17.53
2023-05-14T10:39:49.709Z,17.87
2023-05-14T10:42:21.979Z,16.46
2023-05-14T10:44:56.956Z,17.10
2023-05-14T10:47:26.879Z,15.87
2023-05-14T10:49:56.867Z,16.21
2023-05-14T10:52:24.853Z,15.91
2023-05-14T10:54:51.891Z,17.20
2023-05-14T10:57:20.675Z,18.28
2023-05-14T10:59:49.594Z,17.50
2023-05-14T11:02:31.312Z,16.38
2023-05-14T11:04:59.006Z,15.37
2023-05-14T11:07:30.041Z,15.41
2023-05-14T11:10:05.641Z,14.80
2023-05-14T11:12:34.160Z,14.39
2023-05-14T11:15:04.605Z,12.45
2023-05-14T11:17:33.458Z,11.81
2023-05-14T11:20:00.413Z,11.95
2023-05-14T11:22:27.648Z,12.17
2023-05-14T11:24:54.641Z,11.78
2023-05-14T11:27:23.915Z,11.43
2023-05-14T11:29:51.075Z,9.45
2023-05-14T11:32:18.889Z,10.38
2023-05-14T11:34:47.109Z,9.55
2023-05-14T11:37:16.174Z,8.00
2023-05-14T11:39:48.371Z,6.88
2023-05-14T11:42:18.762Z,6.11
2023-05-14T11:44:49.057Z,5.94
2023-05-14T11:47:17.617Z,5.25
2023-05-14T11:49:45.045Z,7.41
2023-05-14T11:52:14.200Z,7.41
2023-05-14T11:54:42.856Z,4.80
2023-05-14T11:57:10.820Z,4.83
2023-05-14T11:59:38.641Z,3.63
2023-05-14T12:02:08.757Z,5.24
2023-05-14T12:04:37.673Z,8.66
2023-05-14T12:07:12.596Z,10.09
2023-05-14T12:09:45.011Z,11.87
2023-05-14T12:12:12.537Z,12.75
2023-05-14T12:14:42.668Z,13.41
2023-05-14T12:17:17.884Z,14.41
2023-05-14T12:19:46.150Z,14.20
2023-05-14T12:22:16.354Z,15.94
2023-05-14T12:24:43.739Z,16.38
2023-05-14T12:27:11.054Z,17.15
2023-05-14T12:29:41.608Z,17.96
2023-05-14T12:32:09.827Z,18.18
2023-05-14T12:34:38.204Z,18.18
2023-05-14T12:37:06.946Z,17.65
2023-05-14T12:39:34.812Z,13.33
2023-05-14T12:42:01.959Z,9.54
2023-05-14T12:44:30.324Z,6.92
2023-05-14T12:46:57.860Z,6.33
2023-05-14T12:49:24.857Z,5.85
2023-05-14T12:51:57.391Z,6.01
2023-05-14T12:54:31.768Z,7.56
2023-05-14T12:56:59.085Z,9.07
2023-05-14T12:59:25.814Z,8.79
2023-05-14T13:01:52.569Z,10.00
2023-05-14T13:04:19.377Z,11.69
2023-05-14T13:06:46.438Z,12.44
2023-05-14T13:09:13.251Z,14.53
2023-05-14T13:11:40.126Z,14.53
2023-05-14T13:14:06.899Z,15.39
2023-05-14T13:16:33.725Z,15.29
2023-05-14T13:19:00.617Z,16.04
2023-05-14T13:21:27.466Z,16.59
2023-05-14T13:23:54.535Z,17.97
2023-05-14T13:26:21.689Z,17.18
2023-05-14T13:28:48.539Z,17.60
2023-05-14T13:31:15.854Z,18.51
2023-05-14T13:33:43.804Z,19.42
2023-05-14T13:36:13.444Z,19.41
2023-05-14T13:38:40.247Z,20.21
2023-05-14T13:41:08.375Z,20.74
2023-05-14T13:43:35.838Z,20.98
2023-05-14T13:46:04.401Z,20.83
2023-05-14T13:48:31.488Z,20.02
2023-05-14T13:50:59.336Z,20.12
2023-05-14T13:53:28.701Z,20.91
2023-05-14T13:56:00.233Z,20.73
2023-05-14T13:58:27.916Z,19.63
2023-05-14T14:00:54.790Z,20.24
2023-05-14T14:03:21.694Z,20.65
2023-05-14T14:05:48.606Z,21.10
2023-05-14T14:08:23.427Z,21.34
2023-05-14T14:10:54.528Z,21.14
2023-05-14T14:13:22.945Z,21.98
2023-05-14T14:15:50.209Z,21.71
2023-05-14T14:18:17.026Z,21.39
2023-05-14T14:20:43.930Z,21.62
2023-05-14T14:23:10.650Z,20.75
2023-05-14T14:25:37.442Z,20.29
2023-05-14T14:28:04.238Z,21.63
2023-05-14T14:30:32.283Z,22.19
2023-05-14T14:33:01.281Z,23.26
2023-05-14T14:35:28.301Z,23.03
2023-05-14T14:37:55.750Z,23.41
2023-05-14T14:40:23.995Z,23.15
2023-05-14T14:42:51.090Z,23.20
2023-05-14T14:45:18.385Z,21.94
2023-05-14T14:47:46.667Z,22.19
2023-05-14T14:50:13.735Z,22.52
2023-05-14T14:52:45.429Z,22.42
2023-05-14T14:55:14.055Z,23.57
2023-05-14T14:57:40.870Z,22.81
2023-05-14T15:00:09.278Z,22.12
2023-05-14T15:02:38.422Z,23.68
2023-05-14T15:05:06.009Z,23.19
2023-05-14T15:07:33.109Z,22.82
2023-05-14T15:10:00.116Z,23.67
2023-05-14T15:12:26.952Z,23.85
2023-05-14T15:14:53.826Z,23.93
2023-05-14T15:17:20.661Z,21.81
2023-05-14T15:19:47.656Z,22.14
2023-05-14T15:22:14.434Z,22.86
2023-05-14T15:24:41.217Z,21.91
2023-05-14T15:27:08.080Z,21.80
2023-05-14T15:29:35.068Z,22.26
2023-05-14T15:32:03.238Z,21.90
2023-05-14T15:34:30.052Z,21.80
2023-05-14T15:36:56.851Z,22.58
2023-05-14T15:39:23.788Z,22.14
2023-05-14T15:41:50.516Z,22.50
2023-05-14T15:44:17.211Z,21.61
2023-05-14T15:46:44.377Z,21.88
2023-05-14T15:49:11.150Z,21.99
2023-05-14T15:51:37.931Z,22.62
2023-05-14T15:54:04.900Z,21.83
2023-05-14T15:56:31.710Z,21.84
2023-05-14T15:58:58.373Z,22.15
2023-05-14T16:01:25.452Z,21.90
2023-05-14T16:03:53.101Z,21.62
2023-05-14T16:06:20.088Z,21.95
2023-05-14T16:08:46.852Z,22.08
2023-05-14T16:11:13.692Z,22.72
2023-05-14T16:13:41.606Z,23.30
2023-05-14T16:16:08.506Z,22.59
2023-05-14T16:18:35.344Z,23.56
2023-05-14T16:21:04.894Z,23.92
2023-05-14T16:23:34.880Z,23.32
2023-05-14T16:26:03.391Z,22.24
2023-05-14T16:28:30.436Z,23.05
2023-05-14T16:30:57.179Z,22.82
2023-05-14T16:33:24.147Z,23.36
2023-05-14T16:35:51.457Z,22.59
2023-05-14T16:38:19.326Z,22.03
2023-05-14T16:40:46.088Z,22.52
2023-05-14T16:43:13.085Z,22.40
2023-05-14T16:45:41.167Z,23.04
2023-05-14T16:48:07.966Z,23.02
2023-05-14T16:50:37.827Z,23.41
2023-05-14T16:53:04.768Z,22.94
2023-05-14T16:55:31.593Z,22.99
2023-05-14T16:57:58.902Z,23.51
2023-05-14T17:00:26.510Z,23.60
2023-05-14T17:02:54.469Z,23.67
2023-05-14T17:05:22.062Z,23.69
2023-05-14T17:07:49.278Z,23.99
2023-05-14T17:10:16.610Z,23.95
2023-05-14T17:12:43.513Z,24.31
2023-05-14T17:15:11.063Z,24.21
2023-05-14T17:17:38.422Z,24.32
2023-05-14T17:22:32.951Z,24.73
2023-05-14T17:25:00.026Z,24.81
2023-05-14T17:27:29.205Z,25.24
2023-05-14T17:29:56.268Z,25.45
2023-05-14T17:32:23.051Z,25.14
2023-05-14T17:34:50.145Z,25.49
2023-05-14T17:37:17.170Z,25.65
2023-05-14T17:39:43.864Z,25.71
2023-05-14T17:42:10.963Z,25.79
2023-05-14T17:44:37.840Z,25.89
2023-05-14T17:47:05.340Z,26.10
2023-05-14T17:49:32.113Z,26.49
2023-05-14T17:51:59.097Z,26.67
2023-05-14T17:54:25.902Z,27.34
2023-05-14T17:56:53.100Z,27.90
2023-05-14T17:59:22.467Z,28.05
2023-05-14T18:01:51.761Z,28.16
2023-05-14T18:04:18.394Z,28.21
2023-05-14T18:06:45.799Z,28.26
2023-05-14T18:09:12.620Z,28.51
2023-05-14T18:11:39.471Z,28.27
2023-05-14T18:14:06.284Z,28.80
2023-05-14T18:16:33.257Z,28.90
2023-05-14T18:19:02.948Z,28.92
2023-05-14T18:21:29.816Z,29.00
2023-05-14T18:23:56.570Z,28.69
2023-05-14T18:26:23.372Z,28.28
2023-05-14T18:28:50.209Z,28.50
2023-05-14T18:31:17.001Z,28.56
2023-05-14T18:33:43.704Z,28.89
2023-05-14T18:36:11.285Z,28.65
2023-05-14T18:38:38.585Z,28.52
2023-05-14T18:41:05.527Z,28.98
2023-05-14T18:43:32.335Z,29.31
2023-05-14T18:45:59.540Z,29.25
2023-05-14T18:48:26.443Z,29.22
2023-05-14T18:50:53.453Z,29.13
2023-05-14T18:53:20.234Z,29.56
2023-05-14T18:55:47.092Z,29.57
2023-05-14T18:58:14.579Z,29.67
2023-05-14T19:00:41.957Z,29.59
2023-05-14T19:03:09.014Z,29.90
2023-05-14T19:05:35.904Z,30.71
2023-05-14T19:08:02.880Z,30.86
2023-05-14T19:10:29.949Z,30.79
2023-05-14T19:13:04.574Z,30.85
2023-05-14T19:16:28.145Z,30.88
2023-05-14T19:18:58.971Z,30.72
2023-05-14T19:21:26.216Z,31.19
2023-05-14T19:23:53.510Z,31.16
2023-05-14T19:26:21.772Z,31.03
2023-05-14T19:28:52.760Z,31.00
2023-05-14T19:31:19.874Z,31.19
2023-05-14T19:33:48.305Z,31.25
2023-05-14T19:36:15.097Z,31.28
2023-05-14T19:38:41.845Z,31.44
2023-05-14T19:41:08.562Z,31.63
2023-05-14T19:43:35.345Z,31.83
2023-05-14T19:46:04.454Z,31.92
2023-05-14T19:48:32.236Z,32.15
2023-05-14T19:51:00.382Z,32.22
2023-05-14T19:53:30.660Z,32.64
2023-05-14T19:55:57.804Z,32.95
2023-05-14T19:58:25.441Z,33.24
2023-05-14T20:00:56.762Z,33.44
2023-05-14T20:03:27.992Z,33.39
2023-05-14T20:05:55.520Z,33.66
2023-05-14T20:08:22.683Z,33.74
2023-05-14T20:10:53.257Z,33.86
2023-05-14T20:13:20.149Z,34.09
2023-05-14T20:15:50.153Z,34.35
2023-05-14T20:18:16.993Z,34.40
2023-05-14T20:20:44.589Z,34.47
2023-05-14T20:23:11.409Z,34.90
2023-05-14T20:25:39.603Z,34.71
2023-05-14T20:28:07.091Z,35.09
2023-05-14T20:30:35.745Z,35.74
2023-05-14T20:33:04.098Z,35.92
2023-05-14T20:36:06.581Z,35.75
2023-05-14T20:38:34.889Z,35.99
2023-05-14T20:41:12.187Z,35.97
2023-05-14T20:43:39.095Z,36.72
2023-05-14T20:46:07.653Z,36.76
2023-05-14T20:48:34.506Z,36.78
2023-05-14T20:51:07.986Z,37.36
2023-05-14T20:53:35.084Z,37.23
2023-05-14T20:56:01.856Z,37.49
2023-05-14T20:58:28.857Z,37.78
2023-05-14T21:01:02.886Z,37.33
2023-05-14T21:03:34.422Z,37.34
2023-05-14T21:06:02.622Z,37.77
2023-05-14T21:08:32.482Z,37.86
2023-05-14T21:10:59.243Z,37.63
2023-05-14T21:13:25.967Z,37.77
2023-05-14T21:15:52.850Z,38.13
2023-05-14T21:18:19.632Z,38.63
2023-05-14T21:20:47.564Z,38.84
2023-05-14T21:23:14.728Z,40.29
2023-05-14T21:25:41.563Z,40.26
2023-05-14T21:28:08.657Z,41.11
2023-05-14T21:30:36.070Z,41.44
2023-05-14T21:33:03.154Z,41.28
2023-05-14T21:35:30.024Z,41.42
2023-05-14T21:37:56.778Z,41.55
2023-05-14T21:40:23.563Z,40.89
2023-05-14T21:42:50.387Z,41.29
2023-05-14T21:45:17.184Z,41.45
2023-05-14T21:47:43.964Z,41.79
2023-05-14T21:50:11.059Z,42.68
2023-05-14T21:52:38.410Z,42.70
2023-05-14T21:55:05.563Z,42.83
2023-05-14T21:57:34.583Z,42.64
2023-05-14T22:00:02.224Z,42.60
2023-05-14T22:02:32.097Z,43.17
2023-05-14T22:04:58.896Z,42.99
2023-05-14T22:07:25.635Z,43.03
2023-05-14T22:09:52.878Z,43.01
2023-05-14T22:12:19.667Z,43.38
2023-05-14T22:14:46.480Z,44.10
2023-05-14T22:17:32.727Z,45.35
2023-05-14T22:20:00.876Z,44.57
2023-05-14T22:22:27.613Z,44.88
2023-05-14T22:24:54.791Z,44.80
2023-05-14T22:27:21.507Z,44.56
2023-05-14T22:29:48.295Z,45.33
2023-05-14T22:32:15.368Z,45.52
2023-05-14T22:34:42.192Z,46.05
2023-05-14T22:37:09.133Z,46.52
2023-05-14T22:39:35.946Z,46.75
2023-05-14T22:42:02.740Z,46.10
2023-05-14T22:44:30.019Z,46.14
2023-05-14T22:46:57.216Z,46.25
2023-05-14T22:49:24.106Z,46.86
2023-05-14T22:51:54.206Z,46.88
2023-05-14T22:54:21.002Z,46.74
2023-05-14T22:56:47.813Z,46.58
2023-05-14T22:59:14.564Z,46.24
2023-05-14T23:01:41.385Z,47.17
2023-05-14T23:04:08.257Z,46.54
2023-05-14T23:06:35.482Z,47.20
2023-05-14T23:09:02.293Z,47.68
2023-05-14T23:11:29.043Z,47.27
2023-05-14T23:13:55.958Z,47.86
2023-05-14T23:16:22.819Z,47.60
2023-05-14T23:18:49.749Z,47.21
2023-05-14T23:21:16.671Z,47.09
2023-05-14T23:23:43.483Z,47.07
2023-05-14T23:26:10.453Z,46.84
2023-05-14T23:28:37.256Z,47.20
2023-05-14T23:31:04.163Z,48.21
2023-05-14T23:33:30.955Z,48.01
2023-05-14T23:35:58.019Z,47.73
2023-05-14T23:38:24.884Z,47.60
2023-05-14T23:40:51.804Z,47.78
2023-05-14T23:43:18.590Z,48.28
2023-05-14T23:45:45.546Z,47.41
2023-05-14T23:48:12.627Z,47.54
2023-05-14T23:50:39.356Z,47.48
2023-05-14T23:53:06.089Z,48.05
2023-05-14T23:55:32.906Z,47.71
2023-05-14T23:57:59.935Z,47.56
